createdAt,value
2018-11-12T00:01:10.574Z,12.80
2018-11-12T00:03:39.902Z,12.70
2018-11-12T00:06:09.086Z,12.50
2018-11-12T00:08:38.411Z,12.50
2018-11-12T00:11:07.558Z,12.50
2018-11-12T00:13:36.907Z,12.50
2018-11-12T00:16:06.150Z,12.40
2018-11-12T00:18:35.419Z,12.40
2018-11-12T00:21:04.723Z,12.50
2018-11-12T00:23:34.084Z,12.50
2018-11-12T00:26:03.361Z,12.50
2018-11-12T00:28:32.818Z,12.50
2018-11-12T00:31:02.005Z,12.50
2018-11-12T00:33:31.184Z,12.40
2018-11-12T00:36:00.520Z,12.50
2018-11-12T00:38:29.722Z,12.60
2018-11-12T00:40:59.111Z,12.60
2018-11-12T00:43:28.917Z,12.60
2018-11-12T00:45:58.115Z,12.60
2018-11-12T00:48:27.378Z,12.70
2018-11-12T00:50:56.624Z,12.70
2018-11-12T00:53:25.825Z,12.50
2018-11-12T00:55:55.040Z,12.30
2018-11-12T00:58:24.276Z,12.30
2018-11-12T01:00:53.549Z,12.30
2018-11-12T01:03:22.808Z,12.20
2018-11-12T01:05:52.048Z,12.20
2018-11-12T01:08:21.392Z,12.20
2018-11-12T01:10:51.091Z,12.10
2018-11-12T01:13:20.222Z,12.20
2018-11-12T01:15:49.456Z,12.20
2018-11-12T01:18:18.625Z,12.20
2018-11-12T01:20:47.854Z,12.20
2018-11-12T01:23:17.022Z,12.20
2018-11-12T01:25:46.283Z,12.20
2018-11-12T01:28:15.569Z,12.30
2018-11-12T01:30:44.845Z,12.40
2018-11-12T01:33:14.381Z,12.30
2018-11-12T01:35:43.660Z,12.30
2018-11-12T01:38:12.864Z,12.40
2018-11-12T01:40:42.092Z,12.50
2018-11-12T01:43:11.300Z,12.50
2018-11-12T01:45:40.698Z,12.40
2018-11-12T01:48:09.998Z,12.40
2018-11-12T01:50:39.198Z,12.40
2018-11-12T01:53:08.388Z,12.40
2018-11-12T01:55:37.778Z,12.40
2018-11-12T01:58:06.962Z,12.40
2018-11-12T02:00:36.193Z,12.50
2018-11-12T02:03:05.443Z,12.40
2018-11-12T02:05:34.666Z,12.40
2018-11-12T02:08:03.918Z,12.30
2018-11-12T02:10:33.045Z,12.20
2018-11-12T02:13:02.425Z,12.20
2018-11-12T02:15:31.637Z,12.30
2018-11-12T02:18:00.882Z,12.20
2018-11-12T02:20:30.112Z,12.20
2018-11-12T02:22:59.347Z,12.10
2018-11-12T02:25:28.523Z,12.00
2018-11-12T02:27:57.806Z,12.00
2018-11-12T02:30:32.235Z,12.00
2018-11-12T02:33:01.495Z,11.90
2018-11-12T02:35:30.633Z,12.00
2018-11-12T02:37:59.826Z,12.00
2018-11-12T02:40:29.022Z,11.90
2018-11-12T02:42:58.216Z,11.90
2018-11-12T02:45:27.408Z,12.00
2018-11-12T02:47:56.612Z,11.90
2018-11-12T02:50:25.855Z,11.90
2018-11-12T02:52:55.109Z,11.90
2018-11-12T02:55:24.317Z,11.90
2018-11-12T02:57:53.557Z,11.90
2018-11-12T03:00:23.471Z,11.90
2018-11-12T03:02:53.090Z,11.90
2018-11-12T03:05:22.282Z,11.90
2018-11-12T03:07:51.473Z,12.00
2018-11-12T03:10:22.037Z,12.10
2018-11-12T03:12:51.273Z,12.00
2018-11-12T03:15:21.061Z,11.90
2018-11-12T03:17:51.084Z,11.80
2018-11-12T03:20:21.746Z,11.80
2018-11-12T03:22:50.956Z,11.70
2018-11-12T03:25:21.237Z,11.70
2018-11-12T03:27:50.755Z,11.80
2018-11-12T03:30:21.097Z,11.80
2018-11-12T03:32:51.198Z,11.70
2018-11-12T03:35:20.416Z,11.80
2018-11-12T03:37:50.411Z,11.80
2018-11-12T03:40:22.264Z,11.80
2018-11-12T03:42:51.794Z,11.80
2018-11-12T03:45:22.495Z,12.00
2018-11-12T03:47:52.130Z,12.00
2018-11-12T03:50:22.531Z,11.90
2018-11-12T03:52:51.760Z,11.80
2018-11-12T03:55:21.967Z,11.70
2018-11-12T03:57:51.304Z,11.60
2018-11-12T04:00:23.807Z,11.70
2018-11-12T04:02:52.861Z,11.70
2018-11-12T04:05:22.103Z,11.60
2018-11-12T04:07:51.331Z,11.60
2018-11-12T04:10:21.161Z,11.70
2018-11-12T04:12:50.791Z,11.70
2018-11-12T04:15:21.589Z,11.70
2018-11-12T04:17:50.796Z,11.70
2018-11-12T04:20:21.319Z,11.60
2018-11-12T04:22:55.836Z,11.60
2018-11-12T04:25:25.205Z,11.60
2018-11-12T04:27:54.480Z,11.80
2018-11-12T04:30:23.650Z,11.90
2018-11-12T04:32:52.887Z,11.90
2018-11-12T04:35:22.094Z,11.70
2018-11-12T04:37:51.292Z,11.60
2018-11-12T04:40:20.546Z,11.60
2018-11-12T04:42:50.660Z,11.60
2018-11-12T04:45:21.219Z,11.70
2018-11-12T04:47:51.199Z,11.70
2018-11-12T04:50:22.047Z,11.60
2018-11-12T04:52:51.747Z,11.40
2018-11-12T04:55:22.048Z,11.40
2018-11-12T04:57:51.178Z,11.20
2018-11-12T05:00:22.996Z,11.20
2018-11-12T05:02:52.283Z,11.20
2018-11-12T05:05:22.756Z,11.30
2018-11-12T05:07:52.052Z,11.30
2018-11-12T05:10:22.395Z,11.20
2018-11-12T05:12:52.202Z,11.00
2018-11-12T05:15:22.724Z,11.10
2018-11-12T05:17:51.937Z,11.30
2018-11-12T05:20:28.283Z,11.50
2018-11-12T05:22:57.569Z,11.70
2018-11-12T05:25:26.841Z,11.60
2018-11-12T05:27:56.052Z,11.70
2018-11-12T05:30:26.309Z,11.70
2018-11-12T05:32:55.819Z,11.70
2018-11-12T05:35:27.216Z,11.60
2018-11-12T05:37:56.474Z,11.70
2018-11-12T05:40:26.980Z,11.50
2018-11-12T05:42:56.366Z,11.60
2018-11-12T05:45:26.915Z,11.60
2018-11-12T05:47:56.149Z,11.60
2018-11-12T05:50:28.570Z,11.60
2018-11-12T05:52:59.307Z,11.50
2018-11-12T05:55:29.549Z,11.40
2018-11-12T05:57:59.398Z,11.40
2018-11-12T06:00:29.935Z,11.30
2018-11-12T06:02:59.160Z,11.20
2018-11-12T06:05:28.429Z,11.20
2018-11-12T06:07:57.645Z,11.30
2018-11-12T06:10:28.286Z,11.30
2018-11-12T06:12:57.578Z,11.30
2018-11-12T06:15:26.952Z,11.40
2018-11-12T06:17:56.211Z,11.30
2018-11-12T06:20:28.695Z,11.40
2018-11-12T06:22:57.874Z,11.30
2018-11-12T06:25:29.004Z,11.20
2018-11-12T06:27:58.972Z,11.20
2018-11-12T06:30:29.703Z,11.10
2018-11-12T06:32:58.931Z,11.20
2018-11-12T06:35:28.155Z,11.20
2018-11-12T06:37:57.817Z,11.20
2018-11-12T06:40:27.859Z,11.20
2018-11-12T06:42:57.181Z,11.10
2018-11-12T06:45:27.644Z,11.10
2018-11-12T06:47:57.518Z,11.10
2018-11-12T06:50:28.491Z,11.20
2018-11-12T06:52:57.880Z,11.20
2018-11-12T06:55:27.145Z,11.20
2018-11-12T06:57:56.910Z,11.30
2018-11-12T07:00:28.338Z,11.40
2018-11-12T07:02:57.581Z,11.40
2018-11-12T07:05:27.588Z,11.50
2018-11-12T07:07:56.877Z,11.50
2018-11-12T07:10:27.230Z,11.40
2018-11-12T07:12:57.729Z,11.40
2018-11-12T07:15:28.749Z,11.40
2018-11-12T07:17:58.068Z,11.30
2018-11-12T07:20:28.053Z,11.30
2018-11-12T07:22:57.235Z,11.40
2018-11-12T07:25:28.181Z,11.50
2018-11-12T07:27:57.577Z,11.50
2018-11-12T07:30:27.699Z,11.50
2018-11-12T07:32:58.472Z,11.60
2018-11-12T07:35:27.883Z,11.70
2018-11-12T07:37:57.679Z,11.60
2018-11-12T07:40:26.962Z,11.60
2018-11-12T07:42:56.237Z,11.60
2018-11-12T07:45:27.138Z,11.60
2018-11-12T07:47:57.059Z,11.70
2018-11-12T07:50:27.564Z,11.70
2018-11-12T07:52:56.828Z,11.80
2018-11-12T07:55:27.208Z,11.90
2018-11-12T07:57:57.426Z,11.90
2018-11-12T08:00:31.002Z,12.00
2018-11-12T08:03:07.723Z,12.10
2018-11-12T08:05:37.518Z,12.20
2018-11-12T08:08:07.483Z,12.40
2018-11-12T08:10:36.848Z,12.60
2018-11-12T08:13:06.207Z,12.80
2018-11-12T08:15:35.415Z,12.90
2018-11-12T08:18:04.615Z,13.10
2018-11-12T08:20:33.822Z,13.20
2018-11-12T08:23:03.159Z,13.30
2018-11-12T08:25:32.363Z,13.30
2018-11-12T08:28:01.517Z,13.20
2018-11-12T08:30:30.890Z,13.10
2018-11-12T08:33:00.842Z,13.10
2018-11-12T08:35:30.218Z,13.00
2018-11-12T08:37:59.552Z,13.10
2018-11-12T08:40:29.673Z,13.20
2018-11-12T08:42:59.174Z,13.40
2018-11-12T08:45:28.364Z,13.60
2018-11-12T08:47:57.938Z,13.70
2018-11-12T08:50:27.865Z,13.70
2018-11-12T08:52:57.807Z,13.60
2018-11-12T08:55:28.627Z,13.50
2018-11-12T08:57:59.342Z,13.50
2018-11-12T09:00:28.953Z,13.50
2018-11-12T09:02:58.240Z,13.50
2018-11-12T09:05:28.579Z,13.60
2018-11-12T09:07:59.517Z,13.70
2018-11-12T09:10:33.009Z,13.80
2018-11-12T09:13:03.057Z,14.00
2018-11-12T09:15:32.254Z,14.10
2018-11-12T09:18:01.941Z,14.20
2018-11-12T09:20:31.499Z,14.30
2018-11-12T09:23:00.707Z,14.50
2018-11-12T09:25:30.018Z,14.70
2018-11-12T09:27:59.913Z,14.90
2018-11-12T09:30:29.900Z,15.00
2018-11-12T09:32:59.189Z,15.10
2018-11-12T09:35:30.549Z,15.20
2018-11-12T09:38:00.858Z,15.40
2018-11-12T09:40:32.091Z,15.40
2018-11-12T09:43:01.291Z,15.60
2018-11-12T09:45:30.583Z,15.70
2018-11-12T09:47:59.962Z,15.70
2018-11-12T09:50:29.552Z,15.70
2018-11-12T09:52:59.952Z,15.80
2018-11-12T09:55:30.326Z,15.80
2018-11-12T09:58:05.727Z,15.80
2018-11-12T10:00:35.288Z,15.80
2018-11-12T10:03:05.485Z,15.90
2018-11-12T10:05:35.221Z,16.10
2018-11-12T10:08:12.279Z,16.10
2018-11-12T10:10:47.625Z,16.20
2018-11-12T10:13:19.512Z,16.10
2018-11-12T10:15:48.320Z,16.30
2018-11-12T10:18:14.663Z,16.20
2018-11-12T10:20:43.876Z,16.10
2018-11-12T10:23:13.022Z,16.10
2018-11-12T10:25:42.232Z,16.20
2018-11-12T10:28:11.457Z,16.30
2018-11-12T10:30:40.648Z,16.40
2018-11-12T10:33:09.853Z,16.50
2018-11-12T10:35:39.062Z,16.60
2018-11-12T10:38:08.874Z,16.70
2018-11-12T10:40:38.022Z,16.70
2018-11-12T10:43:07.282Z,16.80
2018-11-12T10:45:36.464Z,16.80
2018-11-12T10:48:06.519Z,16.70
2018-11-12T10:50:35.528Z,16.70
2018-11-12T10:53:05.282Z,16.70
2018-11-12T10:55:34.647Z,16.60
2018-11-12T10:58:03.635Z,16.60
2018-11-12T11:01:41.798Z,16.50
2018-11-12T11:04:16.349Z,16.40
2018-11-12T11:06:45.489Z,16.40
2018-11-12T11:09:14.710Z,16.30
2018-11-12T11:11:43.863Z,16.30
2018-11-12T11:14:13.430Z,16.30
2018-11-12T11:16:42.598Z,16.30
2018-11-12T11:19:11.709Z,16.20
2018-11-12T11:21:40.889Z,16.10
2018-11-12T11:24:10.110Z,16.10
2018-11-12T11:26:39.346Z,16.10
2018-11-12T11:29:08.533Z,16.10
2018-11-12T11:31:37.675Z,16.20
2018-11-12T11:34:06.895Z,16.20
2018-11-12T11:36:36.067Z,16.30
2018-11-12T11:39:07.455Z,16.40
2018-11-12T11:41:36.652Z,16.40
2018-11-12T11:44:06.076Z,16.40
2018-11-12T11:46:35.274Z,16.40
2018-11-12T11:49:04.708Z,16.40
2018-11-12T11:51:33.920Z,16.50
2018-11-12T11:54:03.181Z,16.40
2018-11-12T11:56:32.388Z,16.50
2018-11-12T11:59:01.532Z,16.50
2018-11-12T12:01:30.662Z,16.50
2018-11-12T12:04:01.182Z,16.50
2018-11-12T12:06:31.225Z,16.50
2018-11-12T12:09:00.429Z,16.40
2018-11-12T12:11:29.560Z,16.40
2018-11-12T12:13:58.734Z,16.40
2018-11-12T12:16:27.900Z,16.40
2018-11-12T12:18:57.058Z,16.40
2018-11-12T12:21:26.225Z,16.40
2018-11-12T12:23:55.429Z,16.40
2018-11-12T12:26:24.619Z,16.50
2018-11-12T12:28:53.837Z,16.60
2018-11-12T12:31:23.033Z,16.80
2018-11-12T12:33:52.254Z,16.70
2018-11-12T12:36:21.565Z,16.70
2018-11-12T12:38:50.658Z,16.70
2018-11-12T12:41:19.844Z,16.60
2018-11-12T12:43:49.050Z,16.50
2018-11-12T12:46:18.247Z,16.50
2018-11-12T12:48:47.373Z,16.40
2018-11-12T12:51:16.873Z,16.30
2018-11-12T12:53:46.036Z,16.30
2018-11-12T12:56:15.250Z,16.30
2018-11-12T12:58:44.441Z,16.20
2018-11-12T13:01:13.563Z,16.20
2018-11-12T13:03:42.716Z,16.20
2018-11-12T13:06:11.834Z,16.20
2018-11-12T13:08:41.009Z,16.20
2018-11-12T13:11:10.183Z,16.20
2018-11-12T13:13:39.321Z,16.20
2018-11-12T13:16:08.500Z,16.20
2018-11-12T13:18:37.636Z,16.20
2018-11-12T13:21:06.861Z,16.30
2018-11-12T13:23:36.029Z,16.30
2018-11-12T13:26:05.216Z,16.30
2018-11-12T13:28:34.406Z,16.30
2018-11-12T13:31:03.652Z,16.30
2018-11-12T13:33:32.939Z,16.40
2018-11-12T13:36:02.114Z,16.70
2018-11-12T13:38:31.304Z,17.10
2018-11-12T13:41:00.438Z,17.40
2018-11-12T13:43:29.644Z,17.60
2018-11-12T13:45:58.794Z,17.80
2018-11-12T13:48:28.021Z,17.90
2018-11-12T13:50:57.195Z,17.90
2018-11-12T13:53:26.724Z,17.90
2018-11-12T13:55:55.971Z,17.80
2018-11-12T13:58:25.375Z,17.80
2018-11-12T14:00:54.541Z,17.60
2018-11-12T14:03:23.770Z,17.40
2018-11-12T14:05:53.008Z,17.20
2018-11-12T14:08:22.215Z,17.10
2018-11-12T14:10:51.421Z,16.90
2018-11-12T14:13:20.574Z,16.80
2018-11-12T14:15:49.729Z,16.80
2018-11-12T14:18:18.863Z,16.70
2018-11-12T14:20:48.018Z,16.60
2018-11-12T14:23:17.248Z,16.60
2018-11-12T14:25:46.686Z,16.50
2018-11-12T14:28:15.887Z,16.50
2018-11-12T14:30:45.047Z,16.50
2018-11-12T14:33:14.324Z,16.50
2018-11-12T14:35:43.393Z,16.50
2018-11-12T14:38:12.595Z,16.40
2018-11-12T14:40:41.762Z,16.30
2018-11-12T14:43:10.966Z,16.30
2018-11-12T14:45:40.107Z,16.30
2018-11-12T14:48:09.284Z,16.20
2018-11-12T14:50:38.486Z,16.20
2018-11-12T14:53:07.670Z,16.10
2018-11-12T14:55:36.958Z,16.10
2018-11-12T14:58:06.107Z,16.10
2018-11-12T15:00:35.268Z,16.10
2018-11-12T15:03:04.426Z,16.10
2018-11-12T15:05:33.594Z,16.00
2018-11-12T15:08:02.720Z,16.00
2018-11-12T15:10:31.922Z,15.90
2018-11-12T15:13:01.079Z,15.80
2018-11-12T15:15:30.213Z,15.80
2018-11-12T15:17:59.426Z,15.70
2018-11-12T15:20:28.604Z,15.70
2018-11-12T15:22:57.725Z,15.70
2018-11-12T15:25:26.997Z,15.70
2018-11-12T15:27:56.325Z,15.60
2018-11-12T15:30:25.929Z,15.60
2018-11-12T15:32:55.955Z,15.60
2018-11-12T15:35:25.221Z,15.50
2018-11-12T15:37:54.641Z,15.50
2018-11-12T15:40:23.772Z,15.50
2018-11-12T15:42:52.971Z,15.50
2018-11-12T15:45:23.470Z,15.30
2018-11-12T15:47:52.690Z,15.50
2018-11-12T15:50:29.949Z,15.50
2018-11-12T15:53:05.420Z,15.60
2018-11-12T15:55:34.651Z,15.60
2018-11-12T15:58:03.947Z,15.60
2018-11-12T16:00:33.107Z,15.70
2018-11-12T16:03:02.323Z,15.70
2018-11-12T16:05:31.538Z,15.70
2018-11-12T16:08:01.048Z,15.50
2018-11-12T16:10:30.290Z,15.50
2018-11-12T16:12:59.497Z,15.40
2018-11-12T16:15:28.645Z,15.30
2018-11-12T16:17:57.910Z,15.30
2018-11-12T16:20:28.866Z,15.30
2018-11-12T16:22:59.313Z,15.20
2018-11-12T16:25:28.988Z,15.20
2018-11-12T16:27:58.216Z,15.20
2018-11-12T16:30:27.441Z,15.20
2018-11-12T16:32:56.632Z,15.10
2018-11-12T16:35:26.113Z,15.10
2018-11-12T16:37:55.918Z,15.10
2018-11-12T16:40:25.182Z,15.10
2018-11-12T16:42:54.320Z,15.00
2018-11-12T16:45:23.494Z,15.00
2018-11-12T16:47:52.690Z,15.00
2018-11-12T16:50:21.928Z,15.00
2018-11-12T16:52:51.155Z,15.00
2018-11-12T16:55:21.654Z,15.00
2018-11-12T16:57:51.032Z,15.10
2018-11-12T17:00:21.925Z,15.10
2018-11-12T17:02:51.178Z,15.10
2018-11-12T17:05:21.824Z,15.00
2018-11-12T17:07:51.051Z,15.00
2018-11-12T17:10:21.544Z,15.00
2018-11-12T17:12:50.750Z,15.00
2018-11-12T17:15:19.962Z,15.00
2018-11-12T17:17:49.430Z,14.90
2018-11-12T17:20:19.880Z,14.90
2018-11-12T17:22:49.113Z,14.90
2018-11-12T17:25:18.779Z,14.80
2018-11-12T17:27:48.384Z,14.80
2018-11-12T17:30:19.688Z,14.80
2018-11-12T17:32:49.271Z,14.80
2018-11-12T17:35:19.807Z,14.80
2018-11-12T17:37:49.230Z,14.80
2018-11-12T17:40:22.979Z,14.80
2018-11-12T17:42:53.113Z,14.80
2018-11-12T17:45:25.493Z,14.80
2018-11-12T17:47:55.729Z,14.90
2018-11-12T17:50:24.906Z,14.80
2018-11-12T17:52:54.128Z,14.80
2018-11-12T17:55:23.309Z,14.90
2018-11-12T17:57:52.547Z,14.80
2018-11-12T18:00:26.232Z,14.80
2018-11-12T18:02:55.915Z,14.80
2018-11-12T18:05:25.144Z,14.80
2018-11-12T18:07:54.454Z,14.80
2018-11-12T18:10:23.742Z,14.80
2018-11-12T18:12:52.938Z,14.80
2018-11-12T18:15:23.354Z,14.80
2018-11-12T18:17:53.010Z,14.80
2018-11-12T18:20:26.024Z,14.80
2018-11-12T18:22:58.074Z,14.80
2018-11-12T18:25:29.228Z,14.80
2018-11-12T18:27:58.539Z,14.90
2018-11-12T18:30:29.569Z,14.90
2018-11-12T18:32:59.282Z,14.80
2018-11-12T18:35:28.590Z,14.80
2018-11-12T18:37:57.987Z,14.80
2018-11-12T18:40:28.663Z,14.90
2018-11-12T18:42:57.871Z,14.80
2018-11-12T18:45:27.942Z,14.80
2018-11-12T18:47:58.142Z,14.80
2018-11-12T18:50:28.785Z,14.80
2018-11-12T18:52:58.081Z,14.80
2018-11-12T18:55:27.332Z,14.80
2018-11-12T18:57:56.959Z,14.80
2018-11-12T19:00:26.969Z,14.80
2018-11-12T19:02:56.336Z,14.80
2018-11-12T19:05:26.936Z,14.80
2018-11-12T19:07:57.675Z,14.80
2018-11-12T19:10:28.528Z,14.80
2018-11-12T19:12:57.735Z,14.80
2018-11-12T19:15:30.418Z,14.80
2018-11-12T19:18:01.461Z,14.80
2018-11-12T19:20:30.814Z,14.80
2018-11-12T19:23:00.239Z,14.80
2018-11-12T19:25:29.514Z,14.70
2018-11-12T19:27:58.755Z,14.70
2018-11-12T19:30:28.727Z,14.60
2018-11-12T19:32:58.078Z,14.60
2018-11-12T19:35:29.064Z,14.60
2018-11-12T19:37:58.437Z,14.60
2018-11-12T19:40:29.790Z,14.50
2018-11-12T19:42:59.278Z,14.60
2018-11-12T19:45:28.511Z,14.50
2018-11-12T19:47:57.782Z,14.50
2018-11-12T19:50:28.785Z,14.40
2018-11-12T19:52:58.963Z,14.40
2018-11-12T19:55:28.271Z,14.40
2018-11-12T19:57:57.521Z,14.30
2018-11-12T20:00:28.239Z,14.30
2018-11-12T20:02:58.670Z,14.20
2018-11-12T20:05:28.034Z,14.20
2018-11-12T20:07:57.475Z,14.20
2018-11-12T20:10:26.623Z,14.10
2018-11-12T20:12:55.914Z,14.00
2018-11-12T20:15:25.773Z,14.00
2018-11-12T20:17:55.907Z,14.00
2018-11-12T20:20:26.810Z,13.90
2018-11-12T20:22:56.107Z,14.00
2018-11-12T20:25:25.649Z,13.90
2018-11-12T20:27:55.825Z,13.90
2018-11-12T20:30:28.042Z,13.80
2018-11-12T20:32:57.310Z,13.80
2018-11-12T20:35:26.574Z,13.90
2018-11-12T20:37:56.146Z,13.90
2018-11-12T20:40:25.441Z,13.90
2018-11-12T20:42:54.707Z,13.90
2018-11-12T20:45:24.173Z,13.90
2018-11-12T20:47:54.728Z,13.90
2018-11-12T20:50:23.832Z,14.00
2018-11-12T20:52:53.140Z,13.90
2018-11-12T20:55:22.417Z,13.80
2018-11-12T20:57:51.593Z,13.90
2018-11-12T21:00:23.074Z,14.00
2018-11-12T21:02:53.060Z,14.00
2018-11-12T21:05:23.779Z,14.00
2018-11-12T21:07:53.045Z,14.00
2018-11-12T21:10:22.442Z,14.00
2018-11-12T21:12:52.057Z,14.00
2018-11-12T21:15:22.243Z,14.10
2018-11-12T21:17:51.829Z,14.10
2018-11-12T21:20:22.369Z,14.00
2018-11-12T21:22:51.676Z,14.10
2018-11-12T21:25:23.186Z,14.10
2018-11-12T21:27:52.542Z,14.20
2018-11-12T21:30:24.998Z,14.20
2018-11-12T21:32:54.330Z,14.20
2018-11-12T21:35:23.618Z,14.20
2018-11-12T21:37:53.919Z,14.20
2018-11-12T21:40:25.459Z,14.30
2018-11-12T21:42:54.740Z,14.30
2018-11-12T21:45:26.866Z,14.40
2018-11-12T21:47:56.184Z,14.40
2018-11-12T21:50:25.766Z,14.30
2018-11-12T21:52:55.147Z,14.30
2018-11-12T21:55:24.452Z,14.30
2018-11-12T21:57:53.789Z,14.40
2018-11-12T22:00:25.047Z,14.40
2018-11-12T22:02:58.484Z,14.30
2018-11-12T22:05:29.797Z,14.40
2018-11-12T22:07:59.748Z,14.40
2018-11-12T22:10:29.121Z,14.30
2018-11-12T22:12:58.401Z,14.30
2018-11-12T22:15:27.774Z,14.30
2018-11-12T22:17:57.007Z,14.30
2018-11-12T22:20:27.412Z,14.30
2018-11-12T22:22:56.918Z,14.30
2018-11-12T22:25:27.259Z,14.30
2018-11-12T22:27:56.637Z,14.30
2018-11-12T22:30:26.819Z,14.40
2018-11-12T22:32:56.643Z,14.40
2018-11-12T22:35:25.848Z,14.40
2018-11-12T22:37:55.047Z,14.40
2018-11-12T22:40:24.386Z,14.40
2018-11-12T22:42:53.887Z,14.40
2018-11-12T22:45:24.344Z,14.40
2018-11-12T22:47:53.971Z,14.30
2018-11-12T22:50:23.130Z,14.30
2018-11-12T22:52:52.361Z,14.20
2018-11-12T22:55:21.529Z,14.20
2018-11-12T22:57:50.705Z,14.30
2018-11-12T23:00:26.458Z,14.20
2018-11-12T23:02:56.189Z,14.10
2018-11-12T23:05:25.627Z,14.00
2018-11-12T23:07:55.327Z,14.10
2018-11-12T23:10:24.590Z,14.10
2018-11-12T23:12:55.924Z,14.10
2018-11-12T23:15:27.620Z,14.10
2018-11-12T23:17:57.325Z,14.10
2018-11-12T23:20:28.111Z,14.20
2018-11-12T23:22:57.322Z,14.20
2018-11-12T23:25:27.626Z,14.20
2018-11-12T23:27:56.814Z,14.30
2018-11-12T23:30:26.007Z,14.30
2018-11-12T23:32:55.341Z,14.20
2018-11-12T23:35:25.456Z,14.20
2018-11-12T23:37:54.614Z,14.20
2018-11-12T23:40:23.831Z,14.20
2018-11-12T23:42:52.975Z,14.20
2018-11-12T23:45:22.294Z,14.20
2018-11-12T23:47:51.454Z,14.20
2018-11-12T23:50:21.870Z,14.30
2018-11-12T23:52:51.992Z,14.30
2018-11-12T23:55:21.615Z,14.40
2018-11-12T23:57:51.173Z,14.40
